sensor_id;sensor_type;location;lat;lon;timestamp;pressure;altitude;pressure_sealevel;temperature;humidity
63808;BME280;49961;43.970;22.868;2023-04-22T00:00:52;101147.13;;;12.46;100.00
63808;BME280;49961;43.970;22.868;2023-04-22T00:01:53;101142.44;;;12.43;100.00
63808;BME280;49961;43.970;22.868;2023-04-22T00:02:55;101137.38;;;12.38;100.00
63808;BME280;49961;43.970;22.868;2023-04-22T00:03:55;101139.50;;;12.34;100.00
63808;BME280;49961;43.970;22.868;2023-04-22T00:04:55;101134.00;;;12.30;100.00
63808;BME280;49961;43.970;22.868;2023-04-22T00:05:56;101136.84;;;12.27;100.00
63808;BME280;49961;43.970;22.868;2023-04-22T00:06:56;101134.94;;;12.24;100.00
63808;BME280;49961;43.970;22.868;2023-04-22T00:07:57;101132.22;;;12.20;100.00
63808;BME280;49961;43.970;22.868;2023-04-22T00:08:57;101137.09;;;12.16;100.00
63808;BME280;49961;43.970;22.868;2023-04-22T00:09:58;101145.94;;;12.11;100.00
63808;BME280;49961;43.970;22.868;2023-04-22T00:10:58;101132.09;;;12.08;100.00
63808;BME280;49961;43.970;22.868;2023-04-22T00:11:59;100954.19;;;10.89;100.00
63808;BME280;49961;43.970;22.868;2023-04-22T00:13:01;101143.72;;;12.03;100.00
63808;BME280;49961;43.970;22.868;2023-04-22T00:14:01;101133.56;;;11.96;100.00
63808;BME280;49961;43.970;22.868;2023-04-22T00:15:02;101134.00;;;11.95;100.00
63808;BME280;49961;43.970;22.868;2023-04-22T00:16:03;101138.00;;;11.94;100.00
63808;BME280;49961;43.970;22.868;2023-04-22T00:17:04;101145.94;;;11.92;100.00
63808;BME280;49961;43.970;22.868;2023-04-22T00:18:06;101147.25;;;11.87;100.00
63808;BME280;49961;43.970;22.868;2023-04-22T00:19:12;101146.63;;;11.80;100.00
63808;BME280;49961;43.970;22.868;2023-04-22T00:20:13;101153.81;;;11.77;100.00
63808;BME280;49961;43.970;22.868;2023-04-22T00:21:14;101153.47;;;11.75;100.00
63808;BME280;49961;43.970;22.868;2023-04-22T00:22:14;101157.06;;;11.72;100.00
63808;BME280;49961;43.970;22.868;2023-04-22T00:23:15;101159.94;;;11.69;100.00
63808;BME280;49961;43.970;22.868;2023-04-22T00:24:15;101152.44;;;11.66;100.00
63808;BME280;49961;43.970;22.868;2023-04-22T00:25:16;101147.03;;;11.59;100.00
63808;BME280;49961;43.970;22.868;2023-04-22T00:26:16;101159.63;;;11.63;100.00
63808;BME280;49961;43.970;22.868;2023-04-22T00:27:17;101157.28;;;11.62;100.00
63808;BME280;49961;43.970;22.868;2023-04-22T00:28:17;101160.91;;;11.59;100.00
63808;BME280;49961;43.970;22.868;2023-04-22T00:29:18;101167.69;;;11.54;100.00
63808;BME280;49961;43.970;22.868;2023-04-22T00:30:18;101163.81;;;11.52;100.00
63808;BME280;49961;43.970;22.868;2023-04-22T00:31:18;101161.88;;;11.49;100.00
63808;BME280;49961;43.970;22.868;2023-04-22T00:32:19;101165.06;;;11.47;100.00
63808;BME280;49961;43.970;22.868;2023-04-22T00:33:21;101160.72;;;11.46;100.00
63808;BME280;49961;43.970;22.868;2023-04-22T00:34:21;101163.84;;;11.48;100.00
63808;BME280;49961;43.970;22.868;2023-04-22T00:35:22;101174.69;;;11.43;100.00
63808;BME280;49961;43.970;22.868;2023-04-22T00:36:22;101160.09;;;11.39;100.00
63808;BME280;49961;43.970;22.868;2023-04-22T00:37:23;101159.97;;;11.23;100.00
63808;BME280;49961;43.970;22.868;2023-04-22T00:38:24;101164.50;;;11.13;100.00
63808;BME280;49961;43.970;22.868;2023-04-22T00:39:24;101105.38;;;10.51;100.00
63808;BME280;49961;43.970;22.868;2023-04-22T00:40:25;101139.44;;;10.74;100.00
63808;BME280;49961;43.970;22.868;2023-04-22T00:41:26;101168.91;;;10.88;100.00
63808;BME280;49961;43.970;22.868;2023-04-22T00:42:27;101161.56;;;10.78;100.00
63808;BME280;49961;43.970;22.868;2023-04-22T00:43:27;101084.78;;;10.25;100.00
63808;BME280;49961;43.970;22.868;2023-04-22T00:44:28;101161.28;;;10.69;100.00
63808;BME280;49961;43.970;22.868;2023-04-22T00:45:29;101167.63;;;10.69;100.00
63808;BME280;49961;43.970;22.868;2023-04-22T00:46:31;101159.72;;;10.68;100.00
63808;BME280;49961;43.970;22.868;2023-04-22T00:47:33;101158.56;;;10.65;100.00
63808;BME280;49961;43.970;22.868;2023-04-22T00:48:37;101168.09;;;10.64;100.00
63808;BME280;49961;43.970;22.868;2023-04-22T00:49:38;101188.66;;;10.67;100.00
63808;BME280;49961;43.970;22.868;2023-04-22T00:50:38;101162.16;;;10.66;100.00
63808;BME280;49961;43.970;22.868;2023-04-22T00:51:39;101174.06;;;10.63;100.00
63808;BME280;49961;43.970;22.868;2023-04-22T00:52:40;101169.00;;;10.58;100.00
63808;BME280;49961;43.970;22.868;2023-04-22T00:53:40;101172.22;;;10.53;100.00
63808;BME280;49961;43.970;22.868;2023-04-22T00:54:40;101176.28;;;10.48;100.00
63808;BME280;49961;43.970;22.868;2023-04-22T00:55:41;101168.00;;;10.45;100.00
63808;BME280;49961;43.970;22.868;2023-04-22T00:56:41;101174.31;;;10.45;100.00
63808;BME280;49961;43.970;22.868;2023-04-22T00:57:43;101168.78;;;10.45;100.00
63808;BME280;49961;43.970;22.868;2023-04-22T00:58:43;101170.72;;;10.48;100.00
63808;BME280;49961;43.970;22.868;2023-04-22T00:59:44;101173.44;;;10.52;100.00
63808;BME280;49961;43.970;22.868;2023-04-22T01:00:45;101178.19;;;10.51;100.00
63808;BME280;49961;43.970;22.868;2023-04-22T01:01:46;101183.69;;;10.55;100.00
63808;BME280;49961;43.970;22.868;2023-04-22T01:02:46;101179.34;;;10.54;100.00
63808;BME280;49961;43.970;22.868;2023-04-22T01:03:48;101189.25;;;10.55;100.00
63808;BME280;49961;43.970;22.868;2023-04-22T01:04:50;101136.50;;;10.05;100.00
63808;BME280;49961;43.970;22.868;2023-04-22T01:05:53;101184.06;;;10.57;100.00
63808;BME280;49961;43.970;22.868;2023-04-22T01:06:53;101180.50;;;10.56;100.00
63808;BME280;49961;43.970;22.868;2023-04-22T01:07:54;101180.88;;;10.58;100.00
63808;BME280;49961;43.970;22.868;2023-04-22T01:08:55;101174.13;;;10.59;100.00
63808;BME280;49961;43.970;22.868;2023-04-22T01:09:55;101187.16;;;10.62;100.00
63808;BME280;49961;43.970;22.868;2023-04-22T01:10:56;101174.84;;;10.63;100.00
63808;BME280;49961;43.970;22.868;2023-04-22T01:11:57;101181.97;;;10.64;100.00
63808;BME280;49961;43.970;22.868;2023-04-22T01:12:57;101172.84;;;10.64;100.00
63808;BME280;49961;43.970;22.868;2023-04-22T01:13:57;101181.44;;;10.46;100.00
63808;BME280;49961;43.970;22.868;2023-04-22T01:14:58;101175.56;;;10.67;100.00
63808;BME280;49961;43.970;22.868;2023-04-22T01:15:59;101063.84;;;9.94;100.00
63808;BME280;49961;43.970;22.868;2023-04-22T01:17:00;101179.13;;;10.68;100.00
63808;BME280;49961;43.970;22.868;2023-04-22T01:18:02;100997.22;;;9.52;100.00
63808;BME280;49961;43.970;22.868;2023-04-22T01:19:03;101177.16;;;10.68;100.00
63808;BME280;49961;43.970;22.868;2023-04-22T01:20:05;101177.91;;;10.69;100.00
63808;BME280;49961;43.970;22.868;2023-04-22T01:21:09;101181.91;;;10.68;100.00
63808;BME280;49961;43.970;22.868;2023-04-22T01:22:12;101183.88;;;10.67;100.00
63808;BME280;49961;43.970;22.868;2023-04-22T01:23:20;101185.09;;;10.66;100.00
63808;BME280;49961;43.970;22.868;2023-04-22T01:24:21;101180.81;;;10.62;100.00
63808;BME280;49961;43.970;22.868;2023-04-22T01:25:21;101056.59;;;9.77;100.00
63808;BME280;49961;43.970;22.868;2023-04-22T01:26:22;101184.84;;;10.57;100.00
63808;BME280;49961;43.970;22.868;2023-04-22T01:27:24;101189.25;;;10.55;100.00
63808;BME280;49961;43.970;22.868;2023-04-22T01:28:24;101185.31;;;10.52;100.00
63808;BME280;49961;43.970;22.868;2023-04-22T01:29:25;101186.56;;;10.48;100.00
63808;BME280;49961;43.970;22.868;2023-04-22T01:30:26;101149.34;;;10.22;100.00
63808;BME280;49961;43.970;22.868;2023-04-22T01:31:26;101168.97;;;10.31;100.00
63808;BME280;49961;43.970;22.868;2023-04-22T01:32:28;101191.81;;;10.42;100.00
63808;BME280;49961;43.970;22.868;2023-04-22T01:33:29;101187.09;;;10.39;100.00
63808;BME280;49961;43.970;22.868;2023-04-22T01:34:31;101188.69;;;10.37;100.00
63808;BME280;49961;43.970;22.868;2023-04-22T01:35:31;101020.44;;;9.31;100.00
63808;BME280;49961;43.970;22.868;2023-04-22T01:36:36;101188.28;;;10.38;100.00
63808;BME280;49961;43.970;22.868;2023-04-22T01:37:36;101185.09;;;10.40;100.00
63808;BME280;49961;43.970;22.868;2023-04-22T01:38:37;101189.03;;;10.42;100.00
63808;BME280;49961;43.970;22.868;2023-04-22T01:39:38;101178.97;;;10.25;100.00
63808;BME280;49961;43.970;22.868;2023-04-22T01:40:38;101196.97;;;10.40;100.00
63808;BME280;49961;43.970;22.868;2023-04-22T01:41:39;101194.66;;;10.35;100.00
63808;BME280;49961;43.970;22.868;2023-04-22T01:42:40;101179.00;;;10.22;100.00
63808;BME280;49961;43.970;22.868;2023-04-22T01:43:41;101175.94;;;10.16;100.00
63808;BME280;49961;43.970;22.868;2023-04-22T01:44:42;101188.13;;;10.22;100.00
63808;BME280;49961;43.970;22.868;2023-04-22T01:45:42;101202.31;;;10.24;100.00
63808;BME280;49961;43.970;22.868;2023-04-22T01:46:42;101201.13;;;10.25;100.00
63808;BME280;49961;43.970;22.868;2023-04-22T01:47:43;101203.13;;;10.25;100.00
63808;BME280;49961;43.970;22.868;2023-04-22T01:48:43;101202.38;;;10.21;100.00
63808;BME280;49961;43.970;22.868;2023-04-22T01:49:49;101205.56;;;10.19;100.00
63808;BME280;49961;43.970;22.868;2023-04-22T01:50:51;101213.50;;;10.17;100.00
63808;BME280;49961;43.970;22.868;2023-04-22T01:51:51;101209.13;;;10.20;100.00
63808;BME280;49961;43.970;22.868;2023-04-22T01:52:51;101215.44;;;10.20;100.00
63808;BME280;49961;43.970;22.868;2023-04-22T01:53:52;101206.72;;;10.22;100.00
63808;BME280;49961;43.970;22.868;2023-04-22T01:54:53;101209.44;;;10.25;100.00
63808;BME280;49961;43.970;22.868;2023-04-22T01:55:54;101208.59;;;10.28;100.00
63808;BME280;49961;43.970;22.868;2023-04-22T01:56:54;101203.84;;;10.29;100.00
63808;BME280;49961;43.970;22.868;2023-04-22T01:57:55;101207.81;;;10.28;100.00
63808;BME280;49961;43.970;22.868;2023-04-22T01:58:55;101204.63;;;10.29;100.00
63808;BME280;49961;43.970;22.868;2023-04-22T01:59:56;101199.44;;;10.31;100.00
63808;BME280;49961;43.970;22.868;2023-04-22T02:00:57;101201.41;;;10.34;100.00
63808;BME280;49961;43.970;22.868;2023-04-22T02:01:57;101208.50;;;10.35;100.00
63808;BME280;49961;43.970;22.868;2023-04-22T02:02:58;101187.28;;;10.25;100.00
63808;BME280;49961;43.970;22.868;2023-04-22T02:03:58;101207.69;;;10.38;100.00
63808;BME280;49961;43.970;22.868;2023-04-22T02:04:59;101211.22;;;10.39;100.00
63808;BME280;49961;43.970;22.868;2023-04-22T02:05:59;101050.03;;;9.34;100.00
63808;BME280;49961;43.970;22.868;2023-04-22T02:06:59;101210.00;;;10.43;100.00
63808;BME280;49961;43.970;22.868;2023-04-22T02:08:00;101213.13;;;10.45;100.00
63808;BME280;49961;43.970;22.868;2023-04-22T02:09:01;101232.50;;;10.45;100.00
63808;BME280;49961;43.970;22.868;2023-04-22T02:10:05;101206.81;;;10.45;100.00
63808;BME280;49961;43.970;22.868;2023-04-22T02:11:05;101212.69;;;10.47;100.00
63808;BME280;49961;43.970;22.868;2023-04-22T02:12:06;101201.22;;;10.48;100.00
63808;BME280;49961;43.970;22.868;2023-04-22T02:13:06;101211.03;;;10.53;100.00
63808;BME280;49961;43.970;22.868;2023-04-22T02:14:07;101203.09;;;10.55;100.00
63808;BME280;49961;43.970;22.868;2023-04-22T02:15:07;101202.66;;;10.56;100.00
63808;BME280;49961;43.970;22.868;2023-04-22T02:16:08;101193.25;;;10.50;100.00
63808;BME280;49961;43.970;22.868;2023-04-22T02:17:08;101203.88;;;10.55;100.00
63808;BME280;49961;43.970;22.868;2023-04-22T02:18:09;101207.03;;;10.57;100.00
63808;BME280;49961;43.970;22.868;2023-04-22T02:19:10;101199.41;;;10.61;100.00
63808;BME280;49961;43.970;22.868;2023-04-22T02:20:11;101197.38;;;10.65;100.00
63808;BME280;49961;43.970;22.868;2023-04-22T02:21:11;101201.72;;;10.66;100.00
63808;BME280;49961;43.970;22.868;2023-04-22T02:22:12;101176.56;;;10.54;100.00
63808;BME280;49961;43.970;22.868;2023-04-22T02:23:13;101199.34;;;10.68;100.00
63808;BME280;49961;43.970;22.868;2023-04-22T02:24:13;101152.31;;;10.35;100.00
63808;BME280;49961;43.970;22.868;2023-04-22T02:25:13;101203.66;;;10.69;100.00
63808;BME280;49961;43.970;22.868;2023-04-22T02:26:14;101192.56;;;10.69;100.00
63808;BME280;49961;43.970;22.868;2023-04-22T02:27:14;101166.28;;;10.54;100.00
63808;BME280;49961;43.970;22.868;2023-04-22T02:28:15;101192.53;;;10.73;100.00
63808;BME280;49961;43.970;22.868;2023-04-22T02:29:16;101176.06;;;10.62;100.00
63808;BME280;49961;43.970;22.868;2023-04-22T02:30:16;101188.91;;;10.76;100.00
63808;BME280;49961;43.970;22.868;2023-04-22T02:31:17;101188.47;;;10.77;100.00
63808;BME280;49961;43.970;22.868;2023-04-22T02:32:17;101191.63;;;10.79;100.00
63808;BME280;49961;43.970;22.868;2023-04-22T02:33:18;101199.81;;;10.86;100.00
63808;BME280;49961;43.970;22.868;2023-04-22T02:34:18;101153.09;;;10.62;100.00
63808;BME280;49961;43.970;22.868;2023-04-22T02:35:19;101199.06;;;10.86;100.00
63808;BME280;49961;43.970;22.868;2023-04-22T02:36:19;101197.47;;;10.85;100.00
63808;BME280;49961;43.970;22.868;2023-04-22T02:37:20;101191.91;;;10.85;100.00
63808;BME280;49961;43.970;22.868;2023-04-22T02:38:22;101136.28;;;10.49;100.00
63808;BME280;49961;43.970;22.868;2023-04-22T02:39:22;101194.41;;;10.79;100.00
63808;BME280;49961;43.970;22.868;2023-04-22T02:40:23;101060.31;;;9.94;100.00
63808;BME280;49961;43.970;22.868;2023-04-22T02:41:23;101189.69;;;10.76;100.00
63808;BME280;49961;43.970;22.868;2023-04-22T02:42:24;101183.78;;;10.74;100.00
63808;BME280;49961;43.970;22.868;2023-04-22T02:43:24;101194.34;;;10.83;100.00
63808;BME280;49961;43.970;22.868;2023-04-22T02:44:25;101178.53;;;10.80;100.00
63808;BME280;49961;43.970;22.868;2023-04-22T02:45:25;101195.22;;;10.76;100.00
63808;BME280;49961;43.970;22.868;2023-04-22T02:46:26;101164.59;;;10.60;100.00
63808;BME280;49961;43.970;22.868;2023-04-22T02:47:26;101072.84;;;10.02;100.00
63808;BME280;49961;43.970;22.868;2023-04-22T02:48:26;101192.09;;;10.74;100.00
63808;BME280;49961;43.970;22.868;2023-04-22T02:49:27;101187.78;;;10.73;100.00
63808;BME280;49961;43.970;22.868;2023-04-22T02:50:27;101189.34;;;10.74;100.00
63808;BME280;49961;43.970;22.868;2023-04-22T02:51:28;101181.97;;;10.64;100.00
63808;BME280;49961;43.970;22.868;2023-04-22T02:52:28;101078.06;;;9.96;100.00
63808;BME280;49961;43.970;22.868;2023-04-22T02:53:28;101192.19;;;10.67;100.00
63808;BME280;49961;43.970;22.868;2023-04-22T02:54:29;101194.59;;;10.65;100.00
63808;BME280;49961;43.970;22.868;2023-04-22T02:55:29;101193.06;;;10.64;100.00
63808;BME280;49961;43.970;22.868;2023-04-22T02:56:30;101193.06;;;10.64;100.00
63808;BME280;49961;43.970;22.868;2023-04-22T02:57:31;101197.09;;;10.60;100.00
63808;BME280;49961;43.970;22.868;2023-04-22T02:58:31;101117.13;;;10.05;100.00
63808;BME280;49961;43.970;22.868;2023-04-22T02:59:31;101198.31;;;10.55;100.00
63808;BME280;49961;43.970;22.868;2023-04-22T03:00:34;101185.78;;;10.47;100.00
63808;BME280;49961;43.970;22.868;2023-04-22T03:01:34;101199.94;;;10.53;100.00
63808;BME280;49961;43.970;22.868;2023-04-22T03:02:35;101152.81;;;10.26;100.00
63808;BME280;49961;43.970;22.868;2023-04-22T03:03:35;101196.81;;;10.51;100.00
63808;BME280;49961;43.970;22.868;2023-04-22T03:04:36;101174.44;;;10.38;100.00
63808;BME280;49961;43.970;22.868;2023-04-22T03:05:37;101123.94;;;9.97;100.00
63808;BME280;49961;43.970;22.868;2023-04-22T03:06:37;101198.91;;;10.43;100.00
63808;BME280;49961;43.970;22.868;2023-04-22T03:07:37;101187.44;;;10.41;100.00
63808;BME280;49961;43.970;22.868;2023-04-22T03:08:38;101191.41;;;10.40;100.00
63808;BME280;49961;43.970;22.868;2023-04-22T03:09:38;101140.09;;;10.02;100.00
63808;BME280;49961;43.970;22.868;2023-04-22T03:10:39;101131.44;;;9.97;100.00
63808;BME280;49961;43.970;22.868;2023-04-22T03:11:39;101194.19;;;10.40;100.00
63808;BME280;49961;43.970;22.868;2023-04-22T03:12:40;101081.25;;;9.65;100.00
63808;BME280;49961;43.970;22.868;2023-04-22T03:13:40;101178.56;;;10.27;100.00
63808;BME280;49961;43.970;22.868;2023-04-22T03:14:41;101195.03;;;10.37;100.00
63808;BME280;49961;43.970;22.868;2023-04-22T03:15:41;101157.84;;;10.08;100.00
63808;BME280;49961;43.970;22.868;2023-04-22T03:16:42;101191.94;;;10.32;100.00
63808;BME280;49961;43.970;22.868;2023-04-22T03:17:42;101194.66;;;10.35;100.00
63808;BME280;49961;43.970;22.868;2023-04-22T03:18:42;101198.56;;;10.38;100.00
63808;BME280;49961;43.970;22.868;2023-04-22T03:19:43;101099.72;;;9.75;100.00
63808;BME280;49961;43.970;22.868;2023-04-22T03:20:43;101200.56;;;10.37;100.00
63808;BME280;49961;43.970;22.868;2023-04-22T03:21:44;101190.31;;;10.34;100.00
63808;BME280;49961;43.970;22.868;2023-04-22T03:22:44;101143.25;;;10.01;100.00
63808;BME280;49961;43.970;22.868;2023-04-22T03:23:45;101198.63;;;10.34;100.00
63808;BME280;49961;43.970;22.868;2023-04-22T03:24:45;101208.03;;;10.40;100.00
63808;BME280;49961;43.970;22.868;2023-04-22T03:25:46;101202.13;;;10.38;100.00
63808;BME280;49961;43.970;22.868;2023-04-22T03:26:46;101210.41;;;10.42;100.00
63808;BME280;49961;43.970;22.868;2023-04-22T03:27:46;101203.25;;;10.44;100.00
63808;BME280;49961;43.970;22.868;2023-04-22T03:28:47;101200.47;;;10.44;100.00
63808;BME280;49961;43.970;22.868;2023-04-22T03:29:47;101196.88;;;10.47;100.00
63808;BME280;49961;43.970;22.868;2023-04-22T03:30:48;101208.72;;;10.48;100.00
63808;BME280;49961;43.970;22.868;2023-04-22T03:31:48;101212.47;;;10.34;100.00
63808;BME280;49961;43.970;22.868;2023-04-22T03:32:48;101211.47;;;10.21;100.00
63808;BME280;49961;43.970;22.868;2023-04-22T03:33:49;101223.09;;;10.09;100.00
63808;BME280;49961;43.970;22.868;2023-04-22T03:34:49;101225.13;;;10.05;100.00
63808;BME280;49961;43.970;22.868;2023-04-22T03:35:50;101202.22;;;9.98;100.00
63808;BME280;49961;43.970;22.868;2023-04-22T03:36:50;101228.56;;;10.16;100.00
63808;BME280;49961;43.970;22.868;2023-04-22T03:37:51;101224.53;;;10.21;100.00
63808;BME280;49961;43.970;22.868;2023-04-22T03:38:51;101068.00;;;9.16;100.00
63808;BME280;49961;43.970;22.868;2023-04-22T03:39:52;101224.81;;;10.30;100.00
63808;BME280;49961;43.970;22.868;2023-04-22T03:40:52;101225.91;;;10.36;100.00
63808;BME280;49961;43.970;22.868;2023-04-22T03:41:53;101228.22;;;10.41;100.00
63808;BME280;49961;43.970;22.868;2023-04-22T03:42:53;101223.00;;;10.46;100.00
63808;BME280;49961;43.970;22.868;2023-04-22T03:43:53;101222.13;;;10.53;100.00
63808;BME280;49961;43.970;22.868;2023-04-22T03:44:54;101218.53;;;10.56;100.00
63808;BME280;49961;43.970;22.868;2023-04-22T03:45:54;101212.50;;;10.61;100.00
63808;BME280;49961;43.970;22.868;2023-04-22T03:46:55;101218.00;;;10.64;100.00
63808;BME280;49961;43.970;22.868;2023-04-22T03:47:55;101217.94;;;10.68;100.00
63808;BME280;49961;43.970;22.868;2023-04-22T03:48:55;101212.75;;;10.70;100.00
63808;BME280;49961;43.970;22.868;2023-04-22T03:49:56;101221.44;;;10.72;100.00
63808;BME280;49961;43.970;22.868;2023-04-22T03:50:56;101217.06;;;10.74;100.00
63808;BME280;49961;43.970;22.868;2023-04-22T03:51:57;101216.66;;;10.76;100.00
63808;BME280;49961;43.970;22.868;2023-04-22T03:52:58;101203.25;;;10.71;100.00
63808;BME280;49961;43.970;22.868;2023-04-22T03:53:58;101218.50;;;10.82;100.00
63808;BME280;49961;43.970;22.868;2023-04-22T03:54:58;101221.66;;;10.84;100.00
63808;BME280;49961;43.970;22.868;2023-04-22T03:55:59;101227.97;;;10.85;100.00
63808;BME280;49961;43.970;22.868;2023-04-22T03:56:59;101224.91;;;10.79;100.00
63808;BME280;49961;43.970;22.868;2023-04-22T03:58:00;101227.72;;;10.76;100.00
63808;BME280;49961;43.970;22.868;2023-04-22T03:59:01;101234.44;;;10.78;100.00
63808;BME280;49961;43.970;22.868;2023-04-22T04:00:01;101236.53;;;10.67;100.00
63808;BME280;49961;43.970;22.868;2023-04-22T04:01:02;101235.78;;;10.67;100.00
63808;BME280;49961;43.970;22.868;2023-04-22T04:02:02;101241.25;;;10.70;100.00
63808;BME280;49961;43.970;22.868;2023-04-22T04:03:02;101226.41;;;10.57;100.00
63808;BME280;49961;43.970;22.868;2023-04-22T04:04:03;101241.53;;;10.79;100.00
63808;BME280;49961;43.970;22.868;2023-04-22T04:05:03;101247.97;;;10.73;100.00
63808;BME280;49961;43.970;22.868;2023-04-22T04:06:04;101237.41;;;10.64;100.00
63808;BME280;49961;43.970;22.868;2023-04-22T04:07:06;101243.09;;;10.80;100.00
63808;BME280;49961;43.970;22.868;2023-04-22T04:08:06;101250.16;;;10.85;100.00
63808;BME280;49961;43.970;22.868;2023-04-22T04:09:06;101246.50;;;10.91;100.00
63808;BME280;49961;43.970;22.868;2023-04-22T04:10:07;101256.38;;;10.92;100.00
63808;BME280;49961;43.970;22.868;2023-04-22T04:11:08;101246.06;;;10.93;100.00
63808;BME280;49961;43.970;22.868;2023-04-22T04:12:09;101244.78;;;11.01;100.00
63808;BME280;49961;43.970;22.868;2023-04-22T04:13:10;101253.66;;;11.15;100.00
63808;BME280;49961;43.970;22.868;2023-04-22T04:14:10;101265.47;;;11.19;100.00
63808;BME280;49961;43.970;22.868;2023-04-22T04:15:11;101255.56;;;11.18;100.00
63808;BME280;49961;43.970;22.868;2023-04-22T04:16:11;101242.22;;;11.10;100.00
63808;BME280;49961;43.970;22.868;2023-04-22T04:17:12;101254.19;;;11.30;100.00
63808;BME280;49961;43.970;22.868;2023-04-22T04:18:13;101254.19;;;11.30;100.00
63808;BME280;49961;43.970;22.868;2023-04-22T04:19:14;101252.94;;;11.34;100.00
63808;BME280;49961;43.970;22.868;2023-04-22T04:20:14;101245.44;;;11.31;100.00
63808;BME280;49961;43.970;22.868;2023-04-22T04:21:15;101252.75;;;11.45;100.00
63808;BME280;49961;43.970;22.868;2023-04-22T04:22:15;101260.66;;;11.46;100.00
63808;BME280;49961;43.970;22.868;2023-04-22T04:23:16;101258.66;;;11.47;100.00
63808;BME280;49961;43.970;22.868;2023-04-22T04:24:16;101258.59;;;11.50;100.00
63808;BME280;49961;43.970;22.868;2023-04-22T04:25:17;101260.66;;;11.46;100.00
63808;BME280;49961;43.970;22.868;2023-04-22T04:26:17;101263.25;;;11.34;100.00
63808;BME280;49961;43.970;22.868;2023-04-22T04:27:19;101263.25;;;11.34;100.00
63808;BME280;49961;43.970;22.868;2023-04-22T04:28:20;101249.50;;;11.27;100.00
63808;BME280;49961;43.970;22.868;2023-04-22T04:29:21;101263.97;;;11.38;100.00
63808;BME280;49961;43.970;22.868;2023-04-22T04:30:22;101265.13;;;11.40;100.00
63808;BME280;49961;43.970;22.868;2023-04-22T04:31:24;101252.22;;;11.30;100.00
63808;BME280;49961;43.970;22.868;2023-04-22T04:32:25;101276.50;;;11.46;100.00
63808;BME280;49961;43.970;22.868;2023-04-22T04:33:26;101142.34;;;10.64;100.00
63808;BME280;49961;43.970;22.868;2023-04-22T04:34:27;101268.63;;;11.44;100.00
63808;BME280;49961;43.970;22.868;2023-04-22T04:35:28;101260.53;;;11.30;100.00
63808;BME280;49961;43.970;22.868;2023-04-22T04:36:29;101271.09;;;11.39;100.00
63808;BME280;49961;43.970;22.868;2023-04-22T04:37:29;101272.59;;;11.43;100.00
63808;BME280;49961;43.970;22.868;2023-04-22T04:38:29;101277.22;;;11.50;100.00
63808;BME280;49961;43.970;22.868;2023-04-22T04:39:30;101275.66;;;11.49;100.00
63808;BME280;49961;43.970;22.868;2023-04-22T04:40:33;101274.84;;;11.52;100.00
63808;BME280;49961;43.970;22.868;2023-04-22T04:41:34;101267.78;;;11.24;100.00
63808;BME280;49961;43.970;22.868;2023-04-22T04:42:34;101129.69;;;10.40;100.00
63808;BME280;49961;43.970;22.868;2023-04-22T04:43:36;101277.94;;;11.31;100.00
63808;BME280;49961;43.970;22.868;2023-04-22T04:44:37;101124.16;;;10.40;100.00
63808;BME280;49961;43.970;22.868;2023-04-22T04:45:38;101285.69;;;11.43;100.00
63808;BME280;49961;43.970;22.868;2023-04-22T04:46:38;101283.94;;;11.52;100.00
63808;BME280;49961;43.970;22.868;2023-04-22T04:47:39;101290.22;;;11.56;100.00
63808;BME280;49961;43.970;22.868;2023-04-22T04:48:40;101159.94;;;10.80;100.00
63808;BME280;49961;43.970;22.868;2023-04-22T04:49:41;101282.31;;;11.55;100.00
63808;BME280;49961;43.970;22.868;2023-04-22T04:50:43;101296.03;;;11.65;100.00
63808;BME280;49961;43.970;22.868;2023-04-22T04:51:43;101298.84;;;11.62;100.00
63808;BME280;49961;43.970;22.868;2023-04-22T04:52:43;101297.47;;;11.50;100.00
63808;BME280;49961;43.970;22.868;2023-04-22T04:53:44;101301.38;;;11.53;100.00
63808;BME280;49961;43.970;22.868;2023-04-22T04:54:44;101302.50;;;11.59;100.00
63808;BME280;49961;43.970;22.868;2023-04-22T04:55:45;101302.00;;;11.64;100.00
63808;BME280;49961;43.970;22.868;2023-04-22T04:56:45;101295.91;;;11.72;100.00
63808;BME280;49961;43.970;22.868;2023-04-22T04:57:45;101297.28;;;11.84;100.00
63808;BME280;49961;43.970;22.868;2023-04-22T04:58:46;101301.94;;;11.90;100.00
63808;BME280;49961;43.970;22.868;2023-04-22T04:59:46;101302.56;;;11.98;100.00
63808;BME280;49961;43.970;22.868;2023-04-22T05:00:47;101301.56;;;12.08;100.00
63808;BME280;49961;43.970;22.868;2023-04-22T05:01:47;101308.16;;;12.17;100.00
63808;BME280;49961;43.970;22.868;2023-04-22T05:02:48;101301.53;;;12.11;100.00
63808;BME280;49961;43.970;22.868;2023-04-22T05:03:48;101262.59;;;11.72;100.00
63808;BME280;49961;43.970;22.868;2023-04-22T05:04:48;101262.03;;;11.81;100.00
63808;BME280;49961;43.970;22.868;2023-04-22T05:05:49;101147.50;;;11.11;100.00
63808;BME280;49961;43.970;22.868;2023-04-22T05:06:49;101312.06;;;12.20;100.00
63808;BME280;49961;43.970;22.868;2023-04-22T05:07:50;101319.53;;;12.23;100.00
63808;BME280;49961;43.970;22.868;2023-04-22T05:08:50;101288.41;;;12.12;100.00
63808;BME280;49961;43.970;22.868;2023-04-22T05:09:51;101266.44;;;11.98;100.00